createdAt,value
2023-11-25T00:01:15.136Z,1.00
2023-11-25T00:03:41.788Z,1.50
2023-11-25T00:06:08.576Z,1.42
2023-11-25T00:08:35.044Z,1.40
2023-11-25T00:11:01.736Z,1.00
2023-11-25T00:13:28.281Z,1.20
2023-11-25T00:15:55.955Z,1.20
2023-11-25T00:18:23.756Z,1.33
2023-11-25T00:20:50.354Z,1.20
2023-11-25T00:23:18.810Z,1.50
2023-11-25T00:25:45.338Z,1.13
2023-11-25T00:28:12.060Z,1.60
2023-11-25T00:30:39.490Z,1.30
2023-11-25T00:33:06.306Z,1.20
2023-11-25T00:35:32.869Z,1.33
2023-11-25T00:37:59.406Z,1.20
2023-11-25T00:40:26.853Z,1.83
2023-11-25T00:42:53.731Z,1.40
2023-11-25T00:45:22.030Z,1.25
2023-11-25T00:47:48.588Z,1.23
2023-11-25T00:50:17.839Z,2.13
2023-11-25T00:52:44.368Z,1.00
2023-11-25T00:55:11.813Z,1.30
2023-11-25T00:57:39.083Z,1.10
2023-11-25T01:00:06.938Z,1.10
2023-11-25T01:02:34.134Z,1.20
2023-11-25T01:05:00.783Z,1.20
2023-11-25T01:07:27.396Z,1.48
2023-11-25T01:09:54.219Z,1.45
2023-11-25T01:12:21.830Z,1.40
2023-11-25T01:14:48.434Z,1.13
2023-11-25T01:17:14.977Z,1.30
2023-11-25T01:19:41.844Z,1.15
2023-11-25T01:22:08.576Z,1.27
2023-11-25T01:24:35.173Z,1.30
2023-11-25T01:27:01.747Z,1.35
2023-11-25T01:29:28.236Z,1.05
2023-11-25T01:31:54.663Z,1.20
2023-11-25T01:34:21.426Z,1.15
2023-11-25T01:36:48.599Z,1.20
2023-11-25T01:39:15.301Z,1.35
2023-11-25T01:41:44.674Z,1.02
2023-11-25T01:44:11.494Z,1.20
2023-11-25T01:46:39.702Z,1.05
2023-11-25T01:49:11.786Z,1.00
2023-11-25T01:51:43.839Z,1.13
2023-11-25T01:54:17.483Z,1.00
2023-11-25T01:56:54.969Z,1.45
2023-11-25T01:59:22.412Z,1.00
2023-11-25T02:01:50.026Z,1.33
2023-11-25T02:04:17.096Z,1.10
2023-11-25T02:06:43.972Z,1.00
2023-11-25T02:09:10.599Z,0.98
2023-11-25T02:12:03.594Z,1.17
2023-11-25T02:14:30.224Z,1.10
2023-11-25T02:16:57.523Z,1.10
2023-11-25T02:19:27.790Z,1.20
2023-11-25T02:21:54.412Z,0.90
2023-11-25T02:24:21.091Z,0.95
2023-11-25T02:26:47.874Z,1.00
2023-11-25T02:29:14.828Z,1.40
2023-11-25T02:31:41.734Z,1.15
2023-11-25T02:34:08.284Z,1.60
2023-11-25T02:36:35.247Z,1.15
2023-11-25T02:39:02.781Z,1.05
2023-11-25T02:41:29.443Z,1.52
2023-11-25T02:43:56.590Z,1.25
2023-11-25T02:46:24.700Z,1.30
2023-11-25T02:48:51.835Z,1.30
2023-11-25T02:51:18.400Z,1.42
2023-11-25T02:53:45.296Z,1.38
2023-11-25T02:56:11.846Z,1.40
2023-11-25T02:58:38.382Z,1.65
2023-11-25T03:01:09.186Z,1.92
2023-11-25T03:03:38.173Z,1.63
2023-11-25T03:06:07.036Z,1.73
2023-11-25T03:08:35.776Z,1.38
2023-11-25T03:11:06.072Z,1.30
2023-11-25T03:13:32.662Z,1.67
2023-11-25T03:16:02.515Z,1.70
2023-11-25T03:18:29.056Z,1.90
2023-11-25T03:20:55.623Z,1.67
2023-11-25T03:23:22.099Z,1.60
2023-11-25T03:25:48.695Z,1.73
2023-11-25T03:28:16.285Z,1.45
2023-11-25T03:30:42.957Z,1.67
2023-11-25T03:33:10.762Z,1.50
2023-11-25T03:35:37.523Z,1.67
2023-11-25T03:38:05.473Z,1.30
2023-11-25T03:40:32.066Z,1.30
2023-11-25T03:42:59.603Z,1.40
2023-11-25T03:45:27.271Z,1.20
2023-11-25T03:47:55.588Z,1.30
2023-11-25T03:50:22.159Z,1.38
2023-11-25T03:52:48.675Z,1.27
2023-11-25T03:55:15.243Z,1.20
2023-11-25T03:57:44.205Z,1.20
2023-11-25T04:00:15.712Z,1.23
2023-11-25T04:02:43.770Z,1.38
2023-11-25T04:05:11.677Z,1.30
2023-11-25T04:07:38.416Z,1.65
2023-11-25T04:10:16.965Z,1.45
2023-11-25T04:12:45.246Z,1.30
2023-11-25T04:15:13.555Z,1.35
2023-11-25T04:17:41.256Z,1.38
2023-11-25T04:20:18.855Z,1.42
2023-11-25T04:22:47.297Z,1.42
2023-11-25T04:25:15.637Z,1.13
2023-11-25T04:27:48.842Z,1.15
2023-11-25T04:30:17.164Z,1.20
2023-11-25T04:32:45.893Z,1.75
2023-11-25T04:35:12.898Z,1.30
2023-11-25T04:37:39.445Z,0.95
2023-11-25T04:40:06.783Z,1.40
2023-11-25T04:42:33.803Z,1.88
2023-11-25T04:45:01.032Z,1.10
2023-11-25T04:47:28.067Z,1.15
2023-11-25T04:49:55.154Z,1.50
2023-11-25T04:52:21.708Z,1.27
2023-11-25T04:54:49.921Z,1.45
2023-11-25T04:57:16.803Z,1.35
2023-11-25T04:59:43.577Z,1.23
2023-11-25T05:02:10.181Z,1.35
2023-11-25T05:04:36.862Z,1.20
2023-11-25T05:07:04.922Z,1.13
2023-11-25T05:09:31.493Z,1.17
2023-11-25T05:11:57.967Z,1.35
2023-11-25T05:14:24.469Z,1.42
2023-11-25T05:16:51.502Z,1.42
2023-11-25T05:19:18.372Z,1.00
2023-11-25T05:21:44.963Z,1.27
2023-11-25T05:24:11.987Z,1.33
2023-11-25T05:26:38.462Z,1.23
2023-11-25T05:29:06.432Z,1.33
2023-11-25T05:31:34.586Z,1.10
2023-11-25T05:34:05.883Z,1.33
2023-11-25T05:36:33.979Z,1.80
2023-11-25T05:39:01.123Z,1.80
2023-11-25T05:41:31.035Z,1.80
2023-11-25T05:43:58.663Z,1.20
2023-11-25T05:46:25.512Z,1.67
2023-11-25T05:48:55.323Z,1.45
2023-11-25T05:51:22.195Z,1.63
2023-11-25T05:53:48.816Z,1.40
2023-11-25T05:56:15.293Z,1.48
2023-11-25T05:58:41.817Z,1.70
2023-11-25T06:01:08.387Z,1.60
2023-11-25T06:03:35.019Z,1.75
2023-11-25T06:06:01.924Z,2.10
2023-11-25T06:08:28.408Z,2.00
2023-11-25T06:10:57.488Z,1.45
2023-11-25T06:13:24.248Z,1.45
2023-11-25T06:15:52.841Z,2.03
2023-11-25T06:18:21.664Z,1.35
2023-11-25T06:20:48.890Z,1.50
2023-11-25T06:23:18.679Z,1.52
2023-11-25T06:25:45.521Z,2.35
2023-11-25T06:28:15.986Z,1.50
2023-11-25T06:30:42.635Z,1.75
2023-11-25T06:33:09.180Z,1.80
2023-11-25T06:35:38.076Z,1.88
2023-11-25T06:38:05.377Z,1.92
2023-11-25T06:40:34.558Z,1.95
2023-11-25T06:43:01.616Z,1.90
2023-11-25T06:45:28.274Z,1.98
2023-11-25T06:47:55.620Z,1.90
2023-11-25T06:50:23.517Z,1.65
2023-11-25T06:52:50.419Z,2.05
2023-11-25T06:55:19.802Z,1.80
2023-11-25T06:57:47.492Z,1.60
2023-11-25T07:00:14.916Z,1.95
2023-11-25T07:02:42.176Z,2.00
2023-11-25T07:05:09.760Z,1.73
2023-11-25T07:07:37.364Z,1.70
2023-11-25T07:10:04.819Z,1.80
2023-11-25T07:12:31.888Z,1.65
2023-11-25T07:14:58.417Z,1.63
2023-11-25T07:17:24.959Z,1.77
2023-11-25T07:19:51.529Z,1.98
2023-11-25T07:22:18.041Z,1.83
2023-11-25T07:24:47.630Z,1.77
2023-11-25T07:27:19.364Z,1.85
2023-11-25T07:29:46.474Z,1.75
2023-11-25T07:32:13.815Z,2.25
2023-11-25T07:34:40.371Z,1.42
2023-11-25T07:37:07.157Z,1.42
2023-11-25T07:39:34.300Z,1.20
2023-11-25T07:42:02.092Z,1.30
2023-11-25T07:44:31.586Z,2.95
2023-11-25T07:46:59.243Z,2.17
2023-11-25T07:49:25.939Z,1.40
2023-11-25T07:51:52.386Z,1.63
2023-11-25T07:54:19.216Z,1.50
2023-11-25T07:56:46.666Z,1.40
2023-11-25T07:59:13.129Z,1.73
2023-11-25T08:01:39.917Z,1.90
2023-11-25T08:04:06.511Z,1.30
2023-11-25T08:06:33.113Z,1.40
2023-11-25T08:09:00.095Z,1.70
2023-11-25T08:11:28.248Z,1.20
2023-11-25T08:13:55.765Z,1.15
2023-11-25T08:16:22.985Z,1.05
2023-11-25T08:18:49.569Z,1.08
2023-11-25T08:21:16.155Z,1.10
2023-11-25T08:23:43.013Z,1.00
2023-11-25T08:26:24.174Z,1.35
2023-11-25T08:28:51.316Z,1.10
2023-11-25T08:31:18.334Z,1.02
2023-11-25T08:33:45.410Z,1.30
2023-11-25T08:36:13.261Z,1.50
2023-11-25T08:38:40.060Z,1.30
2023-11-25T08:41:07.641Z,1.80
2023-11-25T08:43:47.229Z,1.77
2023-11-25T08:46:14.723Z,2.10
2023-11-25T08:48:43.016Z,2.05
2023-11-25T08:51:11.877Z,2.40
2023-11-25T08:53:39.073Z,2.78
2023-11-25T08:56:07.716Z,2.53
2023-11-25T08:58:34.350Z,2.33
2023-11-25T09:01:02.690Z,2.00
2023-11-25T09:03:29.218Z,2.63
2023-11-25T09:05:55.809Z,2.50
2023-11-25T09:08:22.291Z,2.35
2023-11-25T09:10:50.552Z,2.20
2023-11-25T09:13:17.957Z,2.83
2023-11-25T09:15:45.320Z,2.28
2023-11-25T09:18:13.453Z,2.22
2023-11-25T09:20:39.945Z,2.13
2023-11-25T09:23:06.452Z,1.92
2023-11-25T09:25:33.027Z,1.90
2023-11-25T09:27:59.619Z,2.15
2023-11-25T09:30:27.198Z,2.22
2023-11-25T09:32:54.696Z,2.03
2023-11-25T09:35:21.993Z,2.15
2023-11-25T09:37:49.893Z,2.63
2023-11-25T09:40:17.338Z,2.50
2023-11-25T09:42:46.010Z,3.13
2023-11-25T09:45:12.963Z,2.60
2023-11-25T09:47:40.816Z,2.53
2023-11-25T09:50:10.175Z,2.97
2023-11-25T09:52:50.018Z,2.25
2023-11-25T09:55:18.707Z,2.05
2023-11-25T09:57:54.740Z,2.35
2023-11-25T10:00:22.514Z,2.65
2023-11-25T10:02:55.487Z,2.28
2023-11-25T10:05:22.268Z,2.88
2023-11-25T10:07:48.944Z,2.30
2023-11-25T10:10:22.447Z,2.42
2023-11-25T10:12:50.392Z,2.05
2023-11-25T10:15:17.564Z,2.80
2023-11-25T10:17:49.417Z,2.50
2023-11-25T10:20:23.960Z,2.35
2023-11-25T10:22:54.743Z,2.95
2023-11-25T10:25:25.695Z,3.03
2023-11-25T10:27:52.628Z,2.55
2023-11-25T10:30:21.597Z,2.50
2023-11-25T10:32:50.938Z,2.28
2023-11-25T10:35:17.719Z,2.30
2023-11-25T10:37:49.354Z,2.45
2023-11-25T10:40:18.358Z,1.90
2023-11-25T10:42:46.388Z,2.22
2023-11-25T10:45:17.010Z,2.15
2023-11-25T10:47:43.729Z,2.65
2023-11-25T10:50:11.629Z,2.42
2023-11-25T10:52:39.789Z,2.25
2023-11-25T10:55:09.993Z,2.40
2023-11-25T10:57:37.326Z,2.38
2023-11-25T11:00:11.696Z,2.75
2023-11-25T11:02:46.519Z,2.00
2023-11-25T11:05:18.924Z,2.20
2023-11-25T11:07:52.931Z,2.22
2023-11-25T11:10:31.083Z,1.98
2023-11-25T11:13:04.725Z,2.03
2023-11-25T11:15:31.936Z,2.40
2023-11-25T11:18:20.552Z,2.05
2023-11-25T11:20:51.025Z,1.85
2023-11-25T11:23:23.280Z,2.45
2023-11-25T11:26:00.670Z,2.33
2023-11-25T11:28:44.739Z,3.28
2023-11-25T11:31:48.078Z,2.03
2023-11-25T11:34:14.801Z,3.53
2023-11-25T11:36:41.753Z,2.70
2023-11-25T11:39:12.620Z,2.75
2023-11-25T11:41:40.274Z,2.80
2023-11-25T11:44:09.001Z,2.63
2023-11-25T11:46:40.073Z,2.30
2023-11-25T11:49:08.969Z,2.40
2023-11-25T11:51:36.216Z,2.60
2023-11-25T11:54:20.840Z,3.47
2023-11-25T11:57:04.040Z,2.88
2023-11-25T12:00:12.363Z,2.70
2023-11-25T12:02:43.708Z,2.33
2023-11-25T12:05:11.817Z,2.80
2023-11-25T12:07:38.984Z,3.67
2023-11-25T12:10:06.787Z,3.92
2023-11-25T12:12:40.818Z,2.70
2023-11-25T12:15:09.100Z,2.63
2023-11-25T12:17:36.050Z,4.10
2023-11-25T12:20:02.862Z,2.58
2023-11-25T12:22:29.609Z,3.53
2023-11-25T12:24:56.116Z,3.00
2023-11-25T12:27:24.590Z,3.20
2023-11-25T12:29:51.100Z,2.70
2023-11-25T12:32:18.074Z,2.50
2023-11-25T12:34:46.479Z,2.75
2023-11-25T12:37:14.387Z,3.08
2023-11-25T12:39:41.099Z,3.30
2023-11-25T12:42:07.785Z,2.80
2023-11-25T12:44:50.460Z,3.28
2023-11-25T12:47:17.585Z,3.95
2023-11-25T12:49:45.916Z,2.40
2023-11-25T12:52:24.328Z,2.70
2023-11-25T12:54:51.151Z,2.33
2023-11-25T12:57:19.052Z,2.60
2023-11-25T12:59:47.110Z,2.30
2023-11-25T13:02:14.066Z,2.40
2023-11-25T13:04:47.620Z,2.50
2023-11-25T13:07:31.459Z,2.30
2023-11-25T13:09:58.103Z,2.10
2023-11-25T13:12:25.353Z,2.03
2023-11-25T13:14:52.054Z,2.42
2023-11-25T13:17:18.700Z,2.35
2023-11-25T13:19:45.292Z,2.60
2023-11-25T13:22:11.858Z,2.70
2023-11-25T13:24:38.350Z,1.88
2023-11-25T13:27:05.088Z,2.60
2023-11-25T13:29:31.718Z,2.42
2023-11-25T13:31:58.184Z,2.80
2023-11-25T13:34:25.366Z,3.17
2023-11-25T13:36:53.408Z,2.15
2023-11-25T13:39:24.443Z,2.60
2023-11-25T13:41:50.964Z,2.10
2023-11-25T13:44:17.469Z,2.70
2023-11-25T13:46:44.022Z,2.78
2023-11-25T13:49:10.889Z,2.67
2023-11-25T13:51:37.447Z,2.80
2023-11-25T13:54:04.096Z,2.60
2023-11-25T13:56:30.641Z,2.67
2023-11-25T13:58:58.640Z,2.78
2023-11-25T14:01:26.178Z,2.63
2023-11-25T14:03:57.333Z,2.60
2023-11-25T14:06:29.497Z,2.47
2023-11-25T14:08:56.096Z,2.47
2023-11-25T14:11:26.071Z,2.83
2023-11-25T14:13:52.898Z,2.38
2023-11-25T14:16:19.516Z,3.10
2023-11-25T14:18:46.026Z,2.70
2023-11-25T14:21:12.509Z,2.50
2023-11-25T14:23:39.233Z,2.50
2023-11-25T14:26:05.862Z,2.63
2023-11-25T14:28:32.740Z,3.03
2023-11-25T14:30:59.298Z,2.47
2023-11-25T14:33:25.868Z,3.20
2023-11-25T14:35:52.397Z,2.60
2023-11-25T14:38:18.956Z,2.35
2023-11-25T14:40:45.601Z,2.90
2023-11-25T14:43:12.173Z,2.42
2023-11-25T14:45:40.571Z,1.90
2023-11-25T14:48:08.861Z,1.88
2023-11-25T14:50:41.640Z,2.20
2023-11-25T14:53:08.494Z,2.55
2023-11-25T14:55:35.811Z,2.22
2023-11-25T14:58:02.394Z,2.40
2023-11-25T15:00:30.901Z,2.15
2023-11-25T15:02:59.364Z,2.28
2023-11-25T15:05:26.103Z,1.92
2023-11-25T15:07:52.750Z,2.00
2023-11-25T15:10:19.272Z,2.28
2023-11-25T15:12:45.960Z,1.90
2023-11-25T15:15:14.095Z,1.92
2023-11-25T15:17:40.767Z,1.83
2023-11-25T15:20:08.354Z,1.92
2023-11-25T15:22:35.064Z,1.88
2023-11-25T15:25:01.702Z,1.60
2023-11-25T15:27:28.196Z,2.30
2023-11-25T15:30:06.553Z,1.90
2023-11-25T15:32:33.241Z,1.98
2023-11-25T15:34:59.807Z,1.60
2023-11-25T15:37:26.436Z,1.60
2023-11-25T15:39:53.758Z,1.63
2023-11-25T15:42:20.245Z,3.42
2023-11-25T15:47:13.932Z,2.58
2023-11-25T15:49:41.733Z,1.90
2023-11-25T15:52:08.267Z,2.25
2023-11-25T15:54:34.852Z,2.42
2023-11-25T15:57:01.838Z,2.50
2023-11-25T15:59:30.639Z,2.08
2023-11-25T16:01:57.992Z,2.30
2023-11-25T16:04:25.072Z,2.33
2023-11-25T16:06:54.890Z,1.98
2023-11-25T16:09:21.643Z,1.85
2023-11-25T16:11:48.352Z,2.22
2023-11-25T16:14:14.888Z,2.42
2023-11-25T16:16:41.493Z,2.40
2023-11-25T16:19:08.315Z,1.92
2023-11-25T16:21:37.800Z,2.03
2023-11-25T16:24:05.796Z,2.28
2023-11-25T16:26:32.370Z,2.80
2023-11-25T16:28:58.905Z,1.95
2023-11-25T16:31:25.500Z,1.50
2023-11-25T16:33:52.400Z,1.42
2023-11-25T16:36:19.988Z,1.60
2023-11-25T16:38:46.501Z,1.60
2023-11-25T16:41:13.303Z,1.40
2023-11-25T16:43:40.058Z,1.40
2023-11-25T16:46:06.905Z,1.45
2023-11-25T16:48:43.679Z,1.40
2023-11-25T16:51:19.263Z,1.50
2023-11-25T16:53:47.595Z,1.63
2023-11-25T16:56:14.485Z,2.53
2023-11-25T16:58:41.169Z,1.92
2023-11-25T17:01:07.891Z,3.17
2023-11-25T17:03:35.898Z,1.60
2023-11-25T17:06:06.637Z,1.38
2023-11-25T17:08:33.590Z,1.48
2023-11-25T17:11:00.150Z,2.13
2023-11-25T17:13:26.740Z,1.30
2023-11-25T17:15:53.247Z,1.40
2023-11-25T17:18:19.715Z,1.73
2023-11-25T17:20:46.203Z,1.75
2023-11-25T17:23:12.730Z,1.52
2023-11-25T17:25:39.262Z,1.42
2023-11-25T17:28:05.788Z,1.30
2023-11-25T17:30:36.174Z,1.60
2023-11-25T17:33:03.975Z,1.30
2023-11-25T17:35:30.643Z,1.10
2023-11-25T17:37:57.787Z,1.00
2023-11-25T17:40:24.691Z,1.00
2023-11-25T17:42:51.190Z,1.38
2023-11-25T17:45:20.462Z,1.20
2023-11-25T17:47:47.040Z,1.15
2023-11-25T17:50:13.614Z,1.52
2023-11-25T17:52:40.154Z,2.25
2023-11-25T17:55:07.137Z,2.10
2023-11-25T17:57:34.182Z,1.75
2023-11-25T18:00:01.081Z,0.98
2023-11-25T18:02:27.840Z,1.15
2023-11-25T18:04:54.550Z,0.90
2023-11-25T18:07:21.663Z,1.10
2023-11-25T18:09:48.223Z,2.95
2023-11-25T18:12:14.745Z,2.45
2023-11-25T18:14:41.319Z,1.90
2023-11-25T18:17:07.949Z,1.70
2023-11-25T18:19:35.545Z,1.80
2023-11-25T18:22:02.070Z,1.80
2023-11-25T18:24:28.926Z,1.40
2023-11-25T18:26:55.612Z,1.70
2023-11-25T18:29:22.286Z,1.63
2023-11-25T18:31:49.023Z,1.35
2023-11-25T18:34:15.798Z,1.20
2023-11-25T18:36:42.535Z,1.27
2023-11-25T18:39:10.949Z,1.30
2023-11-25T18:41:37.609Z,1.20
2023-11-25T18:44:05.663Z,1.10
2023-11-25T18:46:33.183Z,1.50
2023-11-25T18:49:00.167Z,1.25
2023-11-25T18:51:27.774Z,2.05
2023-11-25T18:53:54.456Z,1.83
2023-11-25T18:56:21.279Z,1.38
2023-11-25T18:58:48.032Z,1.45
2023-11-25T19:01:14.972Z,1.30
2023-11-25T19:03:42.684Z,1.23
2023-11-25T19:06:09.406Z,1.20
2023-11-25T19:08:35.896Z,1.45
2023-11-25T19:11:02.785Z,1.42
2023-11-25T19:13:29.352Z,1.40
2023-11-25T19:15:55.834Z,1.52
2023-11-25T19:18:22.431Z,1.38
2023-11-25T19:20:48.958Z,1.20
2023-11-25T19:23:15.504Z,1.40
2023-11-25T19:25:42.106Z,1.20
2023-11-25T19:28:09.021Z,1.30
2023-11-25T19:30:35.545Z,1.20
2023-11-25T19:33:02.136Z,1.48
2023-11-25T19:35:28.695Z,1.60
2023-11-25T19:37:55.629Z,1.60
2023-11-25T19:40:22.525Z,1.38
2023-11-25T19:42:49.242Z,1.52
2023-11-25T19:45:16.025Z,1.80
2023-11-25T19:47:42.855Z,1.60
2023-11-25T19:50:10.737Z,1.55
2023-11-25T19:52:39.370Z,1.40
2023-11-25T19:55:07.341Z,1.30
2023-11-25T19:57:34.804Z,1.90
2023-11-25T20:00:01.881Z,1.58
2023-11-25T20:02:28.799Z,1.48
2023-11-25T20:04:55.472Z,1.40
2023-11-25T20:07:22.130Z,1.63
2023-11-25T20:09:48.651Z,1.40
2023-11-25T20:12:15.312Z,1.25
2023-11-25T20:14:42.123Z,1.35
2023-11-25T20:17:08.676Z,1.20
2023-11-25T20:19:35.258Z,1.45
2023-11-25T20:22:02.086Z,1.50
2023-11-25T20:24:28.625Z,1.10
2023-11-25T20:26:56.312Z,1.52
2023-11-25T20:29:23.014Z,1.30
2023-11-25T20:31:49.530Z,1.20
2023-11-25T20:34:16.117Z,1.10
2023-11-25T20:36:42.650Z,1.00
2023-11-25T20:39:09.467Z,1.13
2023-11-25T20:41:36.382Z,2.30
2023-11-25T20:44:03.318Z,1.10
2023-11-25T20:46:30.035Z,1.13
2023-11-25T20:48:56.561Z,0.85
2023-11-25T20:51:23.361Z,0.98
2023-11-25T20:53:50.955Z,1.27
2023-11-25T20:56:19.247Z,1.20
2023-11-25T20:58:46.704Z,2.53
2023-11-25T21:01:14.888Z,1.48
2023-11-25T21:03:41.610Z,1.20
2023-11-25T21:06:08.337Z,1.20
2023-11-25T21:08:34.828Z,1.20
2023-11-25T21:11:01.383Z,1.30
2023-11-25T21:13:27.933Z,1.25
2023-11-25T21:15:54.555Z,1.70
2023-11-25T21:18:22.855Z,1.90
2023-11-25T21:20:49.368Z,1.50
2023-11-25T21:23:15.825Z,1.50
2023-11-25T21:25:42.484Z,1.10
2023-11-25T21:28:09.526Z,1.20
2023-11-25T21:30:36.255Z,1.20
2023-11-25T21:33:03.024Z,1.27
2023-11-25T21:35:29.558Z,1.38
2023-11-25T21:37:56.152Z,1.30
2023-11-25T21:40:24.007Z,1.33
2023-11-25T21:42:51.104Z,1.30
2023-11-25T21:45:17.587Z,1.20
2023-11-25T21:47:44.126Z,1.08
2023-11-25T21:50:11.504Z,1.10
2023-11-25T21:52:38.637Z,1.10
2023-11-25T21:55:05.946Z,0.88
2023-11-25T21:57:32.523Z,1.00
2023-11-25T21:59:59.164Z,0.85
2023-11-25T22:02:26.926Z,0.90
2023-11-25T22:04:53.615Z,0.80
2023-11-25T22:07:20.157Z,0.80
2023-11-25T22:09:46.634Z,0.80
2023-11-25T22:12:13.119Z,1.05
2023-11-25T22:14:39.593Z,0.90
2023-11-25T22:17:06.183Z,1.00
2023-11-25T22:19:32.704Z,0.98
2023-11-25T22:21:59.203Z,1.05
2023-11-25T22:24:26.775Z,1.00
2023-11-25T22:27:10.909Z,1.00
2023-11-25T22:29:37.564Z,0.95
2023-11-25T22:32:05.005Z,1.33
2023-11-25T22:34:31.602Z,1.30
2023-11-25T22:36:58.565Z,1.02
2023-11-25T22:39:25.153Z,1.00
2023-11-25T22:41:51.653Z,1.10
2023-11-25T22:44:19.150Z,1.73
2023-11-25T22:46:45.757Z,1.15
2023-11-25T22:49:12.422Z,1.67
2023-11-25T22:51:38.940Z,1.27
2023-11-25T22:54:05.583Z,2.08
2023-11-25T22:56:32.120Z,1.08
2023-11-25T22:58:58.650Z,1.23
2023-11-25T23:01:28.693Z,1.10
2023-11-25T23:03:56.520Z,1.00
2023-11-25T23:06:26.531Z,1.20
2023-11-25T23:08:54.172Z,1.05
2023-11-25T23:11:21.111Z,1.00
2023-11-25T23:13:47.694Z,1.02
2023-11-25T23:16:16.352Z,0.90
2023-11-25T23:18:43.337Z,0.80
2023-11-25T23:21:10.328Z,0.80
2023-11-25T23:23:43.136Z,0.80
2023-11-25T23:26:12.899Z,1.17
2023-11-25T23:28:39.403Z,1.08
2023-11-25T23:31:05.922Z,1.20
2023-11-25T23:33:32.449Z,1.13
2023-11-25T23:35:59.024Z,0.95
2023-11-25T23:38:25.765Z,0.88
2023-11-25T23:40:53.009Z,1.02
2023-11-25T23:43:20.030Z,1.20
2023-11-25T23:45:46.586Z,1.10
2023-11-25T23:48:13.136Z,0.93
2023-11-25T23:50:39.611Z,1.00
2023-11-25T23:53:06.119Z,0.90
2023-11-25T23:55:32.759Z,0.90
2023-11-25T23:57:59.831Z,0.82
